Latest Coastal Weather Observations for Eucla

IDW60701

Issued at 12:05 am WST Wednesday 1 October 2014 (issued every 10 minutes, with the page automatically refreshed every 10 minutes)

About coastal observations | Map of coastal stations | Coastal observations for WA | Marine services | Other Formats
Station Details ID: 011003 Name: EUCLA Lat: -31.68 Lon: 128.90 Height: 93.1 m
Data from the previous 72 hours. | See also: Recent months at Eucla
Date/Time
WST
Temp

°C
Wind Pressure Rain
since 9am
mm
Weather Cloud Vis
km
Sea
Height
m
Swell
Dir
 
Speed
knots
Gust
knots
hPa Trend Height
m
Period
s
Dir
01/12:00am 14.2 SE 7 10 1026.6 - 0.0 - - - - - - -
 
Date/Time
WST
Temp

°C
Wind Pressure Rain
since 9am
mm
Weather Cloud Vis
km
Sea
Height
m
Swell
Dir
 
Speed
knots
Gust
knots
hPa Trend Height
m
Period
s
Dir
30/11:30pm 13.9 SE 8 11 1026.8 - 0.0 - - - - - - -
30/11:00pm 14.5 SE 8 14 1026.7 - 0.0 - - - - - - -
30/10:30pm 13.7 SE 6 8 1026.7 - 0.0 - - - - - - -
30/10:00pm 13.5 SE 5 7 1026.7 - 0.0 - - - - - - -
30/09:30pm 13.8 SE 6 9 1026.6 - 0.0 - - - - - - -
30/09:00pm 13.9 SE 6 9 1026.5 - 0.0 - - - - - - -
30/08:30pm 13.8 SSE 6 8 1026.5 - 0.0 - - - - - - -
30/08:00pm 14.0 SE 6 8 1026.4 - 0.0 - - - - - - -
30/07:30pm 14.0 SSE 7 10 1026.2 - 0.0 - - - - - - -
30/07:00pm 14.4 SSE 7 12 1025.8 - 0.0 - - - - - - -
30/06:30pm 14.3 SSE 7 10 1025.3 - 0.0 - - - - - - -
30/06:00pm 14.7 SSE 7 10 1025.0 - 0.0 - - - - - - -
30/05:30pm 15.1 SSE 7 10 1024.5 - 0.0 - - - - - - -
30/05:00pm 15.9 SSE 9 13 1024.2 - 0.0 - - - - - - -
30/04:30pm 16.7 S 10 16 1023.9 - 0.0 - - - - - - -
30/04:00pm 17.3 S 9 14 1023.6 - 0.0 - - - - - - -
30/03:30pm 17.1 S 11 16 1023.4 - 0.0 - - - - - - -
30/03:00pm 18.2 S 10 16 1023.2 - 0.0 Haze Partly cloudy 25 - - - -
30/02:30pm 18.7 S 11 15 1022.9 - 0.0 - - - - - - -
30/02:00pm 19.0 S 11 16 1022.8 - 0.0 - - - - - - -
30/01:30pm 20.0 S 10 16 1022.7 - 0.0 - - - - - - -
30/01:00pm 19.9 S 11 17 1022.6 - 0.0 - - - - - - -
30/12:30pm 19.3 S 11 17 1022.5 - 0.0 - - - - - - -
30/12:00pm 20.3 S 11 18 1022.5 - 0.0 - - - - - - -
30/11:30am 20.5 S 10 16 1022.5 - 0.0 - - - - - - -
30/11:00am 20.4 SSW 9 16 1022.6 - 0.0 - - - - - - -
30/10:30am 21.0 SSW 11 18 1022.6 - 0.0 - - - - - - -
30/10:00am 20.9 SSW 10 18 1022.5 - 0.0 - - - - - - -
30/09:30am 20.7 SSW 9 16 1022.4 - 0.0 - - - - - - -
30/09:00am 20.6 SSW 8 12 1022.3 - 0.0 Fine Mostly clear 40 - - - -
30/08:30am 19.3 SSW 10 15 1022.4 - 0.0 - - - - - - -
30/08:00am 18.5 SSW 9 15 1022.2 - 0.0 - - - - - - -
30/07:30am 17.0 SSW 9 14 1022.0 - 0.0 - - - - - - -
30/07:00am 16.6 SW 6 10 1021.4 - 0.0 - - - - - - -
30/06:30am 15.6 WSW 6 8 1020.9 - 0.0 - - - - - - -
30/06:00am 14.5 WNW 5 6 1020.4 - 0.0 - - - - - - -
30/05:30am 13.3 W 5 6 1019.9 - 0.0 - - - - - - -
30/05:00am 12.4 W 5 6 1019.3 - 0.0 - - - - - - -
30/04:30am 11.4 W 5 5 1018.7 - 0.0 - - - - - - -
30/04:00am 10.3 SW 5 6 1018.3 - 0.0 - - - - - - -
30/03:30am 11.3 SW 5 5 1017.8 - 0.0 - - - - - - -
30/03:00am 13.1 SSW 5 6 1017.5 - 0.0 - - - - - - -
30/02:30am 13.1 SSW 4 5 1017.3 - 0.0 - - - - - - -
30/02:00am 13.4 SSW 5 7 1017.0 - 0.0 - - - - - - -
30/01:30am 13.4 S 6 7 1016.9 - 0.0 - - - - - - -
30/01:00am 13.5 S 6 8 1016.8 - 0.0 - - - - - - -
30/12:30am 13.4 S 6 8 1016.9 - 0.0 - - - - - - -
30/12:00am 13.2 SSW 5 7 1016.8 - 0.0 - - - - - - -
 
Date/Time
WST
Temp

°C
Wind Pressure Rain
since 9am
mm
Weather Cloud Vis
km
Sea
Height
m
Swell
Dir
 
Speed
knots
Gust
knots
hPa Trend Height
m
Period
s
Dir
29/11:30pm 13.6 SSW 5 7 1016.5 - 0.0 - - - - - - -
29/11:00pm 13.8 SSW 5 7 1016.5 - 0.0 - - - - - - -
29/10:30pm 13.9 SW 6 7 1016.2 - 0.0 - - - - - - -
29/10:00pm 14.0 SSW 5 6 1015.8 - 0.0 - - - - - - -
29/09:30pm 13.1 S 4 4 1015.5 - 0.0 - - - - - - -
29/09:00pm 14.0 S 4 6 1015.7 - 0.0 - - - - - - -
29/08:30pm 14.7 S 4 5 1015.5 - 0.0 - - - - - - -
29/08:00pm 15.1 S 5 6 1015.5 - 0.0 - - - - - - -
29/07:30pm 15.3 S 6 7 1015.4 - 0.0 - - - - - - -
29/07:00pm 15.3 S 5 7 1014.9 - 0.0 - - - - - - -
29/06:30pm 15.6 S 5 6 1014.4 - 0.0 - - - - - - -
29/06:00pm 16.7 SSE 6 8 1013.8 - 0.0 - - - - - - -
29/05:30pm 19.5 SE 5 7 1013.1 - 0.0 - - - - - - -
29/05:00pm 22.0 SE 5 7 1012.5 - 0.0 - - - - - - -
29/04:30pm 23.2 SSE 6 9 1012.1 - 0.0 - - - - - - -
29/04:00pm 25.2 SSE 5 9 1011.8 - 0.0 - - - - - - -
29/03:30pm 26.4 WNW 9 15 1011.5 - 0.0 - - - - - - -
29/03:00pm 29.2 WNW 11 16 1011.5 - 0.0 Fine Clear 40 - - - -
29/02:30pm 29.2 WNW 12 20 1011.5 - 0.0 - - - - - - -
29/02:00pm 29.0 WNW 11 19 1011.7 - 0.0 - - - - - - -
29/01:30pm 29.5 WNW 10 19 1011.8 - 0.0 - - - - - - -
29/01:00pm 29.0 WNW 12 24 1012.3 - 0.0 - - - - - - -
29/12:30pm 28.1 NW 12 20 1013.0 - 0.0 - - - - - - -
29/12:00pm 27.5 WNW 10 15 1013.6 - 0.0 - - - - - - -
29/11:30am 26.6 NNW 11 16 1014.1 - 0.0 - - - - - - -
29/11:00am 26.0 N 12 19 1014.4 - 0.0 - - - - - - -
29/10:30am 25.2 N 13 20 1014.9 - 0.0 - - - - - - -
29/10:00am 24.0 N 14 19 1015.2 - 0.0 - - - - - - -
29/09:30am 23.1 N 14 20 1015.6 - 0.0 - - - - - - -
29/09:00am 21.6 N 15 23 1015.9 - 0.0 Fine Clear 40 - - - -
29/08:30am 20.2 N 15 22 1016.0 - 0.0 - - - - - - -
29/08:00am 18.6 N 14 21 1016.1 - 0.0 - - - - - - -
29/07:30am 16.7 N 15 20 1016.0 - 0.0 - - - - - - -
29/07:00am 15.2 N 12 16 1016.0 - 0.0 - - - - - - -
29/06:30am 12.4 N 8 12 1016.3 - 0.0 - - - - - - -
29/06:00am 8.6 N 8 10 1016.2 - 0.0 - - - - - - -
29/05:30am 7.0 N 7 9 1015.9 - 0.0 - - - - - - -
29/05:00am 6.4 N 7 8 1015.5 - 0.0 - - - - - - -
29/04:30am 6.3 N 6 7 1015.2 - 0.0 - - - - - - -
29/04:00am 6.8 N 6 7 1014.9 - 0.0 - - - - - - -
29/03:30am 7.9 NE 6 7 1014.7 - 0.0 - - - - - - -
29/03:00am 6.9 NNE 6 6 1014.8 - 0.0 - - - - - - -
29/02:30am 6.9 N 6 6 1015.1 - 0.0 - - - - - - -
29/02:00am 6.8 N 6 6 1015.4 - 0.0 - - - - - - -
29/01:30am 7.5 N 5 6 1015.7 - 0.0 - - - - - - -
29/01:00am 7.7 NNE 5 6 1015.9 - 0.0 - - - - - - -
29/12:30am 7.7 NNE 6 7 1016.1 - 0.0 - - - - - - -
29/12:00am 8.1 NNE 5 6 1016.4 - 0.0 - - - - - - -
 
Date/Time
WST
Temp

°C
Wind Pressure Rain
since 9am
mm
Weather Cloud Vis
km
Sea
Height
m
Swell
Dir
 
Speed
knots
Gust
knots
hPa Trend Height
m
Period
s
Dir
28/11:30pm 8.6 NNE 5 6 1016.6 - 0.0 - - - - - - -
28/11:00pm 8.0 NNE 5 6 1016.8 - 0.0 - - - - - - -
28/10:30pm 10.0 NE 5 6 1017.1 - 0.0 - - - - - - -
28/10:00pm 11.4 E 5 6 1017.5 - 0.0 - - - - - - -
28/09:30pm 9.2 NE 4 5 1017.8 - 0.0 - - - - - - -
28/09:00pm 10.0 NE 5 5 1017.8 - 0.0 - - - - - - -
28/08:30pm 10.3 NE 5 5 1017.9 - 0.0 - - - - - - -
28/08:00pm 10.5 NE 5 6 1017.8 - 0.0 - - - - - - -
28/07:30pm 10.7 NE 5 6 1017.6 - 0.0 - - - - - - -
28/07:00pm 11.4 NE 4 5 1017.0 - 0.0 - - - - - - -
28/06:30pm 11.7 SE 4 4 1016.5 - 0.0 - - - - - - -
28/06:00pm 14.3 S 5 6 1016.1 - 0.0 - - - - - - -
28/05:30pm 15.2 S 6 8 1015.9 - 0.0 - - - - - - -
28/05:00pm 16.5 S 7 12 1015.6 - 0.0 - - - - - - -
28/04:30pm 17.5 SSW 9 16 1015.2 - 0.0 - - - - - - -
28/04:00pm 18.0 SSW 11 17 1015.1 - 0.0 - - - - - - -
28/03:30pm 18.9 S 11 16 1014.8 - 0.0 - - - - - - -
28/03:00pm 19.1 SSW 11 16 1014.6 - 0.0 Fine Clear 40 - - - -
28/02:30pm 19.6 S 10 15 1014.4 - 0.0 - - - - - - -
28/02:00pm 19.6 S 10 16 1014.3 - 0.0 - - - - - - -
28/01:30pm 19.3 S 10 16 1014.2 - 0.0 - - - - - - -
28/01:00pm 19.8 SSW 10 16 1014.4 - 0.0 - - - - - - -
28/12:30pm 20.4 S 9 14 1014.2 - 0.0 - - - - - - -
28/12:00pm 20.7 S 9 13 1014.2 - 0.0 - - - - - - -
28/11:30am 20.8 S 9 14 1014.3 - 0.0 - - - - - - -
28/11:00am 21.1 SSW 9 16 1014.3 - 0.0 - - - - - - -
28/10:30am 22.9 W 9 12 1014.4 - 0.0 - - - - - - -
28/10:00am 21.4 WSW 9 17 1014.6 - 0.0 - - - - - - -
28/09:30am 20.8 WSW 10 15 1014.6 - 0.0 - - - - - - -
28/09:00am 19.8 W 10 15 1014.9 - 0.0 Fine Mostly clear 40 - - - -
28/08:30am 19.2 W 9 16 1014.9 - 0.0 - - - - - - -
28/08:00am 18.1 W 9 16 1014.8 - 0.0 - - - - - - -
28/07:30am 17.5 W 7 11 1014.5 - 0.0 - - - - - - -
28/07:00am 16.8 WNW 7 10 1014.2 - 0.0 - - - - - - -
28/06:30am 15.5 WNW 7 11 1013.8 - 0.0 - - - - - - -
28/06:00am 13.8 WNW 7 10 1013.4 - 0.0 - - - - - - -
28/05:30am 13.9 WNW 5 7 1012.8 - 0.0 - - - - - - -
28/05:00am 13.9 WNW 6 7 1012.4 - 0.0 - - - - - - -
28/04:30am 14.0 W 6 8 1011.9 - 0.0 - - - - - - -
28/04:00am 14.0 WSW 6 8 1011.2 - 0.0 - - - - - - -
28/03:30am 13.9 SW 6 8 1010.5 - 0.0 - - - - - - -
28/03:00am 14.5 SW 7 10 1010.2 - 0.0 - - - - - - -
28/02:30am 14.9 SSW 8 13 1010.0 - 0.0 - - - - - - -
28/02:00am 15.1 SSW 9 16 1010.4 - 0.0 - - - - - - -
28/01:30am 15.4 SSW 10 15 1010.3 - 0.0 - - - - - - -
28/01:00am 15.6 SSW 12 17 1010.1 - 0.0 - - - - - - -
28/12:30am 15.9 SW 15 21 1009.7 - 0.0 - - - - - - -

Other Formats:

Comma delimited format used in spreadsheet applications
http://www.bom.gov.au/fwo/IDW60701/IDW60701.94647.axf

JavaScript Object Notation format (JSON) in row-major order
http://www.bom.gov.au/fwo/IDW60701/IDW60701.94647.json